createdAt,value
2019-01-11T00:00:32.650Z,8.00
2019-01-11T00:01:32.824Z,8.20
2019-01-11T00:02:32.974Z,7.80
2019-01-11T00:03:33.148Z,8.20
2019-01-11T00:04:33.329Z,8.10
2019-01-11T00:05:33.491Z,8.20
2019-01-11T00:06:33.666Z,8.40
2019-01-11T00:07:33.823Z,8.10
2019-01-11T00:08:33.988Z,8.40
2019-01-11T00:09:34.167Z,8.30
2019-01-11T00:10:34.329Z,8.60
2019-01-11T00:11:34.498Z,8.60
2019-01-11T00:12:34.677Z,8.10
2019-01-11T00:13:34.842Z,7.90
2019-01-11T00:14:35.007Z,8.50
2019-01-11T00:15:35.178Z,8.10
2019-01-11T00:16:35.349Z,8.70
2019-01-11T00:17:35.511Z,8.40
2019-01-11T00:18:35.681Z,8.20
2019-01-11T00:19:35.849Z,8.90
2019-01-11T00:20:36.026Z,8.50
2019-01-11T00:21:36.196Z,8.90
2019-01-11T00:22:36.376Z,8.60
2019-01-11T00:23:36.547Z,8.50
2019-01-11T00:24:36.716Z,8.70
2019-01-11T00:25:36.880Z,8.80
2019-01-11T00:26:37.057Z,8.70
2019-01-11T00:27:37.220Z,8.20
2019-01-11T00:28:37.386Z,8.20
2019-01-11T00:29:37.561Z,8.30
2019-01-11T00:30:37.728Z,8.90
2019-01-11T00:31:37.892Z,8.30
2019-01-11T00:32:38.067Z,8.60
2019-01-11T00:33:38.227Z,8.10
2019-01-11T00:34:38.409Z,8.60
2019-01-11T00:35:38.571Z,8.70
2019-01-11T00:36:38.741Z,8.60
2019-01-11T00:37:38.926Z,8.40
2019-01-11T00:38:39.078Z,8.90
2019-01-11T00:39:39.245Z,8.60
2019-01-11T00:40:39.427Z,8.80
2019-01-11T00:41:39.578Z,8.30
2019-01-11T00:42:39.764Z,9.40
2019-01-11T00:43:39.924Z,9.20
2019-01-11T00:44:40.111Z,9.20
2019-01-11T00:45:40.263Z,9.00
2019-01-11T00:46:40.427Z,8.80
2019-01-11T00:47:40.598Z,9.10
2019-01-11T00:48:40.772Z,9.00
2019-01-11T00:49:40.946Z,9.20
2019-01-11T00:50:41.106Z,9.00
2019-01-11T00:51:41.273Z,9.20
2019-01-11T00:52:41.450Z,9.10
2019-01-11T00:53:41.631Z,9.10
2019-01-11T00:54:41.803Z,8.70
2019-01-11T00:55:41.970Z,9.10
2019-01-11T00:56:42.140Z,9.20
2019-01-11T00:57:42.322Z,9.70
2019-01-11T00:58:42.482Z,9.80
2019-01-11T00:59:42.661Z,9.30
2019-01-11T01:00:42.817Z,9.20
2019-01-11T01:01:42.986Z,9.00
2019-01-11T01:02:43.158Z,9.40
2019-01-11T01:03:43.320Z,9.70
2019-01-11T01:04:43.480Z,9.30
2019-01-11T01:06:43.828Z,9.70
2019-01-11T01:07:43.997Z,10.10
2019-01-11T01:08:44.158Z,9.60
2019-01-11T01:09:44.327Z,10.00
2019-01-11T01:10:44.505Z,9.60
2019-01-11T01:11:44.666Z,10.10
2019-01-11T01:12:44.837Z,10.10
2019-01-11T01:13:45.004Z,10.40
2019-01-11T01:14:45.176Z,9.80
2019-01-11T01:15:45.358Z,9.90
2019-01-11T01:16:45.523Z,9.90
2019-01-11T01:17:45.690Z,10.20
2019-01-11T01:18:45.862Z,9.80
2019-01-11T01:19:46.030Z,9.70
2019-01-11T01:20:46.201Z,10.10
2019-01-11T01:21:46.372Z,10.00
2019-01-11T01:22:46.547Z,10.40
2019-01-11T01:23:46.711Z,10.20
2019-01-11T01:24:46.906Z,10.40
2019-01-11T01:25:47.055Z,10.20
2019-01-11T01:26:47.223Z,9.50
2019-01-11T01:27:47.406Z,10.00
2019-01-11T01:28:47.564Z,10.40
2019-01-11T01:29:47.737Z,9.70
2019-01-11T01:30:47.906Z,9.50
2019-01-11T01:31:48.109Z,9.60
2019-01-11T01:32:48.264Z,9.90
2019-01-11T01:33:48.420Z,10.00
2019-01-11T01:34:48.596Z,10.30
2019-01-11T01:35:48.759Z,10.30
2019-01-11T01:36:48.930Z,10.40
2019-01-11T01:37:49.102Z,10.10
2019-01-11T01:38:49.267Z,10.00
2019-01-11T01:39:49.447Z,9.80
2019-01-11T01:40:49.608Z,10.00
2019-01-11T01:41:49.766Z,9.30
2019-01-11T01:42:49.939Z,10.00
2019-01-11T01:43:50.107Z,9.90
2019-01-11T01:44:50.276Z,10.10
2019-01-11T01:45:50.453Z,9.60
2019-01-11T01:46:50.620Z,10.10
2019-01-11T01:47:50.791Z,9.90
2019-01-11T01:48:50.958Z,10.40
2019-01-11T01:49:51.128Z,10.70
2019-01-11T01:50:51.302Z,10.10
2019-01-11T01:51:51.478Z,10.00
2019-01-11T01:52:51.640Z,9.70
2019-01-11T01:53:51.808Z,10.60
2019-01-11T01:54:51.975Z,10.20
2019-01-11T01:55:52.145Z,10.80
2019-01-11T01:56:52.313Z,10.70
2019-01-11T01:57:52.482Z,10.30
2019-01-11T01:58:52.655Z,10.00
2019-01-11T01:59:52.831Z,10.20
2019-01-11T02:00:52.992Z,10.50
2019-01-11T02:01:53.165Z,10.90
2019-01-11T02:02:53.336Z,10.90
2019-01-11T02:03:53.500Z,11.00
2019-01-11T02:04:53.669Z,10.80
2019-01-11T02:05:53.838Z,10.50
2019-01-11T02:06:54.010Z,10.90
2019-01-11T02:07:54.176Z,11.00
2019-01-11T02:08:54.349Z,10.50
2019-01-11T02:09:54.519Z,10.40
2019-01-11T02:10:54.701Z,10.50
2019-01-11T02:11:54.854Z,10.80
2019-01-11T02:12:55.025Z,10.90
2019-01-11T02:13:55.194Z,10.90
2019-01-11T02:14:55.373Z,10.40
2019-01-11T02:15:55.531Z,10.70
2019-01-11T02:16:55.706Z,10.70
2019-01-11T02:17:55.870Z,10.20
2019-01-11T02:18:56.047Z,10.40
2019-01-11T02:19:56.213Z,10.30
2019-01-11T02:20:56.400Z,11.00
2019-01-11T02:21:56.560Z,10.40
2019-01-11T02:22:56.733Z,10.90
2019-01-11T02:23:56.898Z,10.30
2019-01-11T02:24:57.064Z,11.00
2019-01-11T02:25:57.235Z,10.30
2019-01-11T02:26:57.408Z,9.90
2019-01-11T02:27:57.574Z,11.00
2019-01-11T02:28:57.748Z,10.90
2019-01-11T02:29:57.922Z,10.40
2019-01-11T02:30:58.079Z,10.10
2019-01-11T02:31:58.251Z,11.40
2019-01-11T02:32:58.434Z,10.50
2019-01-11T02:33:58.591Z,10.90
2019-01-11T02:34:58.757Z,10.60
2019-01-11T02:35:58.931Z,10.80
2019-01-11T02:36:59.099Z,11.00
2019-01-11T02:37:59.269Z,10.40
2019-01-11T02:38:59.445Z,11.50
2019-01-11T02:39:59.612Z,10.90
2019-01-11T02:40:59.780Z,11.00
2019-01-11T02:41:59.952Z,11.00
2019-01-11T02:43:00.125Z,10.80
2019-01-11T02:44:00.302Z,10.30
2019-01-11T02:45:00.459Z,10.60
2019-01-11T02:46:00.632Z,10.90
2019-01-11T02:47:00.810Z,10.90
2019-01-11T02:48:00.975Z,10.70
2019-01-11T02:49:01.134Z,11.50
2019-01-11T02:50:01.306Z,10.80
2019-01-11T02:51:01.474Z,10.90
2019-01-11T02:52:01.645Z,11.40
2019-01-11T02:53:01.827Z,11.50
2019-01-11T02:54:01.981Z,11.70
2019-01-11T02:55:02.152Z,11.00
2019-01-11T02:56:02.324Z,10.90
2019-01-11T02:57:02.491Z,12.00
2019-01-11T02:58:02.662Z,11.80
2019-01-11T02:59:02.980Z,11.80
2019-01-11T03:00:03.002Z,10.90
2019-01-11T03:01:03.169Z,11.50
2019-01-11T03:02:03.343Z,11.30
2019-01-11T03:03:03.510Z,11.70
2019-01-11T03:04:03.680Z,11.20
2019-01-11T03:05:03.845Z,10.40
2019-01-11T03:06:04.021Z,11.90
2019-01-11T03:07:04.202Z,11.00
2019-01-11T03:08:04.353Z,11.00
2019-01-11T03:09:04.524Z,11.30
2019-01-11T03:10:04.689Z,10.90
2019-01-11T03:11:04.861Z,11.10
2019-01-11T03:12:05.026Z,10.70
2019-01-11T03:13:05.204Z,11.60
2019-01-11T03:14:05.368Z,11.40
2019-01-11T03:15:05.534Z,11.20
2019-01-11T03:16:05.706Z,11.40
2019-01-11T03:17:05.951Z,11.80
2019-01-11T03:18:06.045Z,11.60
2019-01-11T03:19:06.214Z,11.90
2019-01-11T03:20:06.384Z,12.00
2019-01-11T03:21:06.553Z,11.60
2019-01-11T03:22:06.724Z,11.90
2019-01-11T03:23:06.897Z,11.80
2019-01-11T03:24:07.057Z,11.20
2019-01-11T03:25:07.243Z,11.90
2019-01-11T03:26:07.398Z,12.00
2019-01-11T03:27:07.568Z,11.40
2019-01-11T03:28:07.741Z,11.80
2019-01-11T03:29:07.906Z,11.40
2019-01-11T03:30:08.080Z,12.20
2019-01-11T03:31:08.242Z,11.80
2019-01-11T03:32:08.402Z,11.50
2019-01-11T03:33:08.580Z,12.40
2019-01-11T03:34:08.748Z,11.90
2019-01-11T03:35:08.921Z,12.70
2019-01-11T03:36:09.082Z,11.70
2019-01-11T03:37:09.250Z,11.40
2019-01-11T03:38:09.423Z,11.90
2019-01-11T03:39:09.594Z,12.40
2019-01-11T03:40:09.763Z,12.30
2019-01-11T03:41:09.930Z,12.20
2019-01-11T03:42:10.104Z,12.20
2019-01-11T03:43:10.267Z,12.00
2019-01-11T03:44:10.436Z,12.70
2019-01-11T03:45:10.606Z,11.70
2019-01-11T03:46:10.771Z,13.10
2019-01-11T03:47:10.951Z,13.20
2019-01-11T03:48:11.107Z,12.30
2019-01-11T03:49:11.280Z,12.50
2019-01-11T03:50:11.452Z,12.70
2019-01-11T03:51:11.620Z,13.10
2019-01-11T03:52:11.790Z,13.30
2019-01-11T03:53:11.964Z,13.00
2019-01-11T03:54:12.131Z,12.60
2019-01-11T03:55:12.296Z,12.90
2019-01-11T03:56:12.461Z,13.50
2019-01-11T03:57:12.632Z,13.60
2019-01-11T03:58:12.805Z,12.60
2019-01-11T03:59:12.972Z,13.70
2019-01-11T04:00:13.141Z,13.30
2019-01-11T04:01:13.316Z,12.20
2019-01-11T04:02:13.475Z,12.80
2019-01-11T04:03:13.642Z,13.20
2019-01-11T04:04:13.820Z,13.70
2019-01-11T04:05:13.987Z,13.00
2019-01-11T04:06:14.151Z,12.80
2019-01-11T04:07:14.317Z,12.90
2019-01-11T04:08:14.487Z,13.30
2019-01-11T04:09:14.660Z,13.10
2019-01-11T04:10:14.819Z,13.10
2019-01-11T04:11:14.984Z,13.00
2019-01-11T04:12:15.153Z,12.40
2019-01-11T04:13:15.327Z,11.80
2019-01-11T04:14:15.493Z,12.60
2019-01-11T04:15:15.665Z,13.50
2019-01-11T04:16:15.834Z,12.90
2019-01-11T04:17:16.001Z,12.90
2019-01-11T04:18:16.172Z,12.70
2019-01-11T04:19:16.339Z,12.70
2019-01-11T04:20:16.538Z,13.00
2019-01-11T04:21:16.675Z,13.60
2019-01-11T04:22:16.849Z,12.70
2019-01-11T04:23:17.012Z,12.90
2019-01-11T04:24:17.183Z,12.70
2019-01-11T04:25:17.351Z,12.30
2019-01-11T04:26:17.518Z,11.70
2019-01-11T04:27:17.694Z,12.30
2019-01-11T04:28:17.851Z,11.90
2019-01-11T04:29:18.021Z,12.00
2019-01-11T04:30:18.188Z,12.10
2019-01-11T04:31:18.358Z,13.10
2019-01-11T04:32:18.531Z,13.30
2019-01-11T04:33:18.700Z,12.70
2019-01-11T04:34:18.871Z,11.60
2019-01-11T04:35:19.042Z,12.30
2019-01-11T04:36:19.217Z,12.30
2019-01-11T04:37:19.377Z,12.40
2019-01-11T04:38:19.558Z,12.30
2019-01-11T04:39:19.716Z,12.90
2019-01-11T04:40:19.881Z,12.60
2019-01-11T04:41:20.067Z,12.20
2019-01-11T04:42:20.220Z,11.90
2019-01-11T04:43:20.383Z,11.70
2019-01-11T04:44:20.557Z,13.40
2019-01-11T04:45:20.726Z,12.20
2019-01-11T04:46:20.902Z,12.30
2019-01-11T04:47:21.067Z,12.90
2019-01-11T04:48:21.228Z,12.90
2019-01-11T04:49:21.394Z,13.40
2019-01-11T04:50:21.577Z,13.40
2019-01-11T04:51:21.732Z,13.40
2019-01-11T04:52:21.901Z,13.30
2019-01-11T04:53:22.074Z,12.80
2019-01-11T04:54:22.232Z,12.80
2019-01-11T04:55:22.412Z,13.90
2019-01-11T04:56:22.572Z,12.80
2019-01-11T04:57:22.742Z,14.20
2019-01-11T04:58:22.911Z,13.50
2019-01-11T04:59:23.078Z,13.40
2019-01-11T05:00:23.252Z,13.40
2019-01-11T05:01:23.419Z,14.60
2019-01-11T05:02:23.587Z,14.30
2019-01-11T05:03:23.764Z,15.30
2019-01-11T05:04:23.927Z,13.70
2019-01-11T05:05:24.096Z,14.70
2019-01-11T05:06:24.261Z,13.30
2019-01-11T05:07:24.430Z,14.20
2019-01-11T05:08:24.610Z,14.20
2019-01-11T05:09:24.774Z,13.80
2019-01-11T05:10:24.942Z,15.20
2019-01-11T05:11:25.109Z,14.30
2019-01-11T05:12:25.284Z,14.70
2019-01-11T05:13:25.451Z,15.40
2019-01-11T05:14:25.612Z,15.20
2019-01-11T05:15:25.781Z,14.90
2019-01-11T05:16:25.952Z,14.90
2019-01-11T05:17:26.119Z,15.60
2019-01-11T05:18:26.287Z,15.00
2019-01-11T05:19:26.459Z,14.30
2019-01-11T05:20:26.638Z,15.10
2019-01-11T05:21:26.799Z,14.10
2019-01-11T05:22:26.967Z,14.30
2019-01-11T05:23:27.137Z,14.50
2019-01-11T05:24:27.307Z,14.70
2019-01-11T05:25:27.472Z,14.00
2019-01-11T05:26:27.639Z,14.60
2019-01-11T05:27:27.808Z,14.20
2019-01-11T05:28:27.972Z,14.80
2019-01-11T05:29:28.144Z,15.00
2019-01-11T05:30:28.316Z,14.80
2019-01-11T05:31:28.483Z,14.40
2019-01-11T05:32:28.675Z,14.40
2019-01-11T05:33:28.833Z,14.50
2019-01-11T05:34:29.002Z,14.00
2019-01-11T05:35:29.171Z,14.10
2019-01-11T05:36:29.344Z,14.20
2019-01-11T05:37:29.517Z,13.50
2019-01-11T05:38:29.698Z,13.90
2019-01-11T05:39:29.860Z,13.80
2019-01-11T05:40:30.024Z,13.40
2019-01-11T05:41:30.204Z,13.80
2019-01-11T05:42:30.354Z,14.70
2019-01-11T05:43:30.524Z,14.50
2019-01-11T05:44:30.699Z,14.10
2019-01-11T05:45:30.861Z,14.70
2019-01-11T05:46:31.032Z,13.90
2019-01-11T05:47:31.201Z,14.40
2019-01-11T05:48:31.374Z,14.10
2019-01-11T05:49:31.543Z,14.10
2019-01-11T05:50:31.699Z,13.80
2019-01-11T05:51:31.875Z,14.30
2019-01-11T05:52:32.032Z,14.50
2019-01-11T05:53:32.203Z,14.40
2019-01-11T05:54:32.368Z,14.10
2019-01-11T05:55:32.540Z,13.50
2019-01-11T05:56:32.710Z,14.20
2019-01-11T05:57:32.870Z,14.10
2019-01-11T05:58:33.032Z,15.30
2019-01-11T05:59:33.196Z,15.10
2019-01-11T06:00:33.399Z,14.30
2019-01-11T06:01:33.560Z,14.40
2019-01-11T06:02:33.738Z,14.20
2019-01-11T06:03:33.900Z,14.20
2019-01-11T06:04:34.071Z,14.00
2019-01-11T06:05:34.237Z,13.20
2019-01-11T06:06:34.413Z,14.30
2019-01-11T06:07:34.577Z,15.20
2019-01-11T06:08:34.741Z,14.70
2019-01-11T06:09:34.912Z,14.40
2019-01-11T06:10:35.078Z,15.10
2019-01-11T06:11:35.249Z,14.70
2019-01-11T06:12:35.415Z,15.40
2019-01-11T06:13:35.612Z,14.80
2019-01-11T06:14:35.772Z,14.40
2019-01-11T06:15:35.946Z,14.40
2019-01-11T06:16:36.118Z,14.90
2019-01-11T06:17:36.286Z,14.90
2019-01-11T06:18:36.452Z,14.40
2019-01-11T06:19:36.627Z,14.10
2019-01-11T06:20:36.795Z,14.90
2019-01-11T06:21:36.964Z,14.60
2019-01-11T06:22:37.138Z,14.10
2019-01-11T06:23:37.308Z,14.20
2019-01-11T06:24:37.471Z,14.60
2019-01-11T06:25:37.662Z,14.50
2019-01-11T06:26:37.800Z,14.10
2019-01-11T06:27:37.971Z,14.20
2019-01-11T06:28:38.140Z,13.90
2019-01-11T06:29:38.316Z,14.40
2019-01-11T06:30:38.480Z,14.00
2019-01-11T06:31:38.648Z,14.30
2019-01-11T06:32:38.816Z,14.00
2019-01-11T06:33:38.989Z,13.80
2019-01-11T06:34:39.167Z,13.60
2019-01-11T06:35:39.324Z,13.40
2019-01-11T06:36:39.501Z,14.30
2019-01-11T06:37:39.656Z,14.60
2019-01-11T06:38:39.835Z,13.00
2019-01-11T06:39:39.988Z,13.60
2019-01-11T06:40:40.157Z,13.30
2019-01-11T06:41:40.326Z,13.20
2019-01-11T06:42:40.495Z,13.10
2019-01-11T06:43:40.675Z,13.20
2019-01-11T06:44:40.850Z,13.00
2019-01-11T06:45:41.003Z,12.50
2019-01-11T06:46:41.162Z,13.30
2019-01-11T06:47:41.327Z,12.40
2019-01-11T06:48:41.518Z,13.80
2019-01-11T06:49:41.666Z,13.50
2019-01-11T06:50:41.836Z,13.50
2019-01-11T06:51:42.005Z,13.30
2019-01-11T06:52:42.168Z,13.70
2019-01-11T06:53:42.338Z,13.40
2019-01-11T06:54:42.512Z,13.50
2019-01-11T06:55:42.679Z,13.40
2019-01-11T06:56:42.857Z,13.00
2019-01-11T06:57:43.030Z,13.70
2019-01-11T06:58:43.193Z,13.40
2019-01-11T06:59:43.362Z,13.60
2019-01-11T07:00:43.530Z,13.60
2019-01-11T07:01:43.688Z,14.20
2019-01-11T07:02:43.873Z,13.40
2019-01-11T07:03:44.049Z,13.20
2019-01-11T07:04:44.216Z,13.70
2019-01-11T07:05:44.388Z,13.30
2019-01-11T07:06:44.584Z,12.90
2019-01-11T07:07:44.725Z,13.30
2019-01-11T07:08:44.898Z,12.70
2019-01-11T07:09:45.068Z,13.30
2019-01-11T07:10:45.245Z,12.80
2019-01-11T07:11:45.406Z,13.10
2019-01-11T07:12:45.576Z,13.80
2019-01-11T07:13:45.753Z,13.30
2019-01-11T07:14:45.911Z,13.40
2019-01-11T07:15:46.080Z,13.30
2019-01-11T07:16:46.248Z,13.20
2019-01-11T07:17:46.413Z,13.90
2019-01-11T07:18:47.120Z,12.70
2019-01-11T07:19:46.742Z,13.00
2019-01-11T07:20:47.613Z,13.50
2019-01-11T07:21:47.054Z,13.80
2019-01-11T07:22:47.232Z,13.10
2019-01-11T07:23:47.398Z,12.90
2019-01-11T07:24:47.576Z,14.20
2019-01-11T07:25:47.901Z,14.00
2019-01-11T07:26:47.941Z,13.70
2019-01-11T07:27:48.078Z,13.30
2019-01-11T07:28:48.265Z,14.00
2019-01-11T07:29:48.425Z,13.80
2019-01-11T07:30:48.575Z,12.80
2019-01-11T07:31:48.735Z,13.00
2019-01-11T07:32:48.906Z,13.60
2019-01-11T07:33:49.075Z,13.80
2019-01-11T07:34:49.272Z,14.40
2019-01-11T07:35:49.439Z,13.40
2019-01-11T07:36:49.629Z,12.50
2019-01-11T07:37:49.777Z,12.80
2019-01-11T07:38:49.939Z,14.00
2019-01-11T07:39:50.117Z,14.00
2019-01-11T07:40:50.281Z,13.00
2019-01-11T07:41:50.451Z,13.50
2019-01-11T07:42:50.620Z,13.50
2019-01-11T07:43:50.784Z,13.30
2019-01-11T07:44:50.958Z,14.20
2019-01-11T07:45:51.127Z,14.10
2019-01-11T07:46:51.296Z,13.90
2019-01-11T07:47:51.465Z,14.70
2019-01-11T07:48:51.635Z,14.60
2019-01-11T07:49:51.807Z,13.60
2019-01-11T07:50:51.975Z,13.90
2019-01-11T07:51:52.158Z,13.20
2019-01-11T07:52:52.319Z,13.60
2019-01-11T07:53:52.490Z,13.30
2019-01-11T07:54:52.661Z,13.20
2019-01-11T07:55:52.844Z,13.20
2019-01-11T07:56:53.010Z,12.80
2019-01-11T07:57:53.187Z,13.30
2019-01-11T07:58:53.364Z,14.30
2019-01-11T07:59:53.542Z,13.70
2019-01-11T08:00:53.703Z,13.90
2019-01-11T08:01:53.859Z,13.80
2019-01-11T08:02:54.022Z,13.30
2019-01-11T08:03:54.196Z,13.10
2019-01-11T08:04:54.374Z,12.80
2019-01-11T08:05:54.536Z,13.10
2019-01-11T08:06:54.709Z,13.60
2019-01-11T08:07:54.878Z,13.30
2019-01-11T08:08:55.047Z,13.60
2019-01-11T08:09:55.213Z,13.90
2019-01-11T08:10:55.392Z,13.80
2019-01-11T08:11:55.568Z,13.60
2019-01-11T08:12:55.731Z,13.80
2019-01-11T08:13:55.917Z,13.60
2019-01-11T08:14:56.114Z,13.70
2019-01-11T08:15:56.254Z,14.20
2019-01-11T08:16:56.423Z,13.40
2019-01-11T08:17:56.585Z,13.90
2019-01-11T08:18:56.748Z,13.30
2019-01-11T08:19:56.917Z,13.80
2019-01-11T08:20:57.086Z,13.80
2019-01-11T08:21:57.257Z,13.50
2019-01-11T08:22:57.440Z,13.90
2019-01-11T08:23:57.602Z,14.10
2019-01-11T08:24:57.782Z,14.00
2019-01-11T08:25:57.937Z,14.10
2019-01-11T08:26:58.112Z,13.60
2019-01-11T08:27:58.288Z,14.80
2019-01-11T08:28:58.461Z,14.50
2019-01-11T08:29:58.620Z,14.60
2019-01-11T08:30:58.782Z,14.60
2019-01-11T08:31:58.958Z,14.40
2019-01-11T08:32:59.131Z,14.10
2019-01-11T08:33:59.300Z,12.70
2019-01-11T08:34:59.469Z,13.70
2019-01-11T08:35:59.631Z,14.70
2019-01-11T08:36:59.800Z,14.60
2019-01-11T08:37:59.968Z,14.30
2019-01-11T08:39:00.148Z,14.30
2019-01-11T08:40:00.316Z,14.50
2019-01-11T08:41:00.485Z,13.10
2019-01-11T08:42:00.645Z,13.80
2019-01-11T08:43:00.811Z,13.60
2019-01-11T08:44:00.990Z,13.20
2019-01-11T08:45:01.153Z,13.10
2019-01-11T08:46:01.318Z,13.40
2019-01-11T08:47:01.497Z,13.10
2019-01-11T08:48:01.664Z,13.30
2019-01-11T08:49:01.838Z,14.20
2019-01-11T08:50:02.012Z,13.50
2019-01-11T08:51:02.751Z,13.90
2019-01-11T08:52:02.342Z,13.60
2019-01-11T08:53:02.519Z,13.70
2019-01-11T08:54:02.698Z,13.70
2019-01-11T08:55:02.869Z,13.70
2019-01-11T08:56:08.305Z,13.50
2019-01-11T08:57:03.193Z,13.20
2019-01-11T08:58:03.365Z,13.50
2019-01-11T08:59:03.536Z,14.90
2019-01-11T09:00:03.706Z,13.90
2019-01-11T09:01:03.895Z,14.40
2019-01-11T09:02:04.063Z,14.10
2019-01-11T09:03:04.231Z,12.90
2019-01-11T09:04:04.407Z,12.90
2019-01-11T09:05:04.580Z,13.60
2019-01-11T09:06:04.749Z,13.40
2019-01-11T09:07:04.924Z,14.30
2019-01-11T09:08:05.091Z,13.50
2019-01-11T09:09:05.258Z,13.00
2019-01-11T09:10:05.431Z,14.00
2019-01-11T09:11:05.610Z,13.20
2019-01-11T09:12:05.775Z,13.60
2019-01-11T09:13:06.028Z,14.60
2019-01-11T09:14:06.076Z,14.30
2019-01-11T09:15:06.244Z,12.50
2019-01-11T09:16:06.423Z,13.40
2019-01-11T09:17:06.585Z,13.10
2019-01-11T09:18:06.757Z,12.70
2019-01-11T09:19:06.919Z,12.60
2019-01-11T09:20:07.078Z,12.90
2019-01-11T09:21:09.514Z,13.90
2019-01-11T09:22:07.430Z,13.10
2019-01-11T09:23:07.602Z,13.10
2019-01-11T09:24:07.784Z,12.50
2019-01-11T09:25:07.952Z,12.70
2019-01-11T09:26:08.137Z,13.20
2019-01-11T09:27:08.283Z,13.40
2019-01-11T09:28:08.459Z,13.50
2019-01-11T09:29:08.643Z,13.10
2019-01-11T09:30:08.805Z,12.60
2019-01-11T09:31:08.991Z,12.70
2019-01-11T09:32:09.139Z,12.40
2019-01-11T09:33:09.324Z,13.00
2019-01-11T09:34:09.476Z,13.30
2019-01-11T09:35:09.648Z,12.70
2019-01-11T09:36:09.823Z,12.90
2019-01-11T09:37:09.996Z,13.20
2019-01-11T09:38:10.245Z,13.20
2019-01-11T09:39:10.337Z,12.60
2019-01-11T09:40:10.511Z,12.70
2019-01-11T09:41:10.686Z,12.70
2019-01-11T09:42:10.853Z,12.60
2019-01-11T09:43:11.009Z,12.70
2019-01-11T09:44:11.209Z,13.50
2019-01-11T09:45:11.370Z,13.40
2019-01-11T09:46:11.544Z,13.90
2019-01-11T09:47:11.727Z,13.70
2019-01-11T09:48:11.888Z,14.50
2019-01-11T09:49:12.058Z,12.80
2019-01-11T09:50:12.234Z,13.70
2019-01-11T09:51:15.704Z,12.40
2019-01-11T09:52:12.555Z,14.40
2019-01-11T09:53:12.724Z,14.10
2019-01-11T09:54:12.899Z,13.50
2019-01-11T09:55:13.066Z,13.30
2019-01-11T09:56:13.223Z,12.40
2019-01-11T09:57:13.410Z,13.00
2019-01-11T09:58:13.585Z,13.00
2019-01-11T09:59:13.731Z,12.60
2019-01-11T10:00:13.906Z,13.40
2019-01-11T10:01:14.061Z,12.90
2019-01-11T10:02:14.246Z,13.60
2019-01-11T10:03:14.382Z,13.70
2019-01-11T10:04:14.547Z,13.70
2019-01-11T10:05:14.736Z,13.40
2019-01-11T10:06:14.871Z,12.80
2019-01-11T10:07:15.050Z,13.40
2019-01-11T10:08:15.212Z,12.40
2019-01-11T10:09:15.391Z,13.40
2019-01-11T10:10:15.557Z,13.20
2019-01-11T10:11:16.637Z,13.10
2019-01-11T10:12:15.882Z,13.40
2019-01-11T10:13:16.646Z,14.30
2019-01-11T10:14:16.231Z,13.80
2019-01-11T10:15:16.395Z,13.60
2019-01-11T10:16:16.551Z,13.40
2019-01-11T10:17:16.718Z,13.40
2019-01-11T10:18:16.919Z,13.90
2019-01-11T10:19:17.062Z,14.40
2019-01-11T10:20:17.228Z,13.00
2019-01-11T10:21:22.440Z,13.00
2019-01-11T10:22:17.551Z,14.30
2019-01-11T10:23:17.721Z,12.00
2019-01-11T10:24:17.890Z,13.70
2019-01-11T10:25:18.061Z,13.30
2019-01-11T10:26:18.229Z,13.20
2019-01-11T10:27:18.391Z,14.70
2019-01-11T10:28:18.564Z,13.60
2019-01-11T10:29:18.728Z,13.40
2019-01-11T10:30:18.904Z,13.50
2019-01-11T10:31:19.063Z,13.40
2019-01-11T10:32:19.261Z,13.70
2019-01-11T10:33:19.408Z,12.80
2019-01-11T10:34:19.579Z,13.20
2019-01-11T10:35:19.748Z,12.90
2019-01-11T10:36:19.921Z,12.30
2019-01-11T10:37:20.113Z,13.60
2019-01-11T10:38:20.276Z,14.40
2019-01-11T10:39:20.449Z,13.30
2019-01-11T10:40:20.616Z,13.20
2019-01-11T10:41:20.796Z,12.90
2019-01-11T10:42:20.963Z,12.70
2019-01-11T10:43:21.136Z,13.70
2019-01-11T10:44:21.310Z,13.30
2019-01-11T10:45:21.468Z,13.50
2019-01-11T10:46:21.629Z,13.40
2019-01-11T10:47:21.808Z,13.20
2019-01-11T10:48:21.985Z,13.50
2019-01-11T10:49:22.141Z,13.60
2019-01-11T10:50:22.311Z,13.90
2019-01-11T10:51:28.045Z,13.90
2019-01-11T10:52:22.655Z,13.10
2019-01-11T10:53:22.831Z,13.00
2019-01-11T10:54:22.994Z,13.90
2019-01-11T10:55:24.209Z,13.10
2019-01-11T10:56:23.339Z,13.20
2019-01-11T10:57:23.514Z,13.90
2019-01-11T10:58:23.687Z,13.40
2019-01-11T10:59:23.896Z,13.70
2019-01-11T11:00:24.003Z,13.20
2019-01-11T11:01:24.161Z,13.10
2019-01-11T11:02:24.354Z,13.20
2019-01-11T11:03:24.521Z,13.50
2019-01-11T11:04:24.695Z,13.40
2019-01-11T11:05:24.843Z,13.50
2019-01-11T11:06:25.015Z,13.10
2019-01-11T11:07:25.194Z,13.20
2019-01-11T11:08:25.355Z,14.20
2019-01-11T11:09:25.523Z,14.10
2019-01-11T11:10:25.710Z,13.70
2019-01-11T11:11:25.847Z,13.70
2019-01-11T11:12:26.020Z,13.60
2019-01-11T11:13:26.190Z,13.70
2019-01-11T11:14:26.361Z,13.40
2019-01-11T11:15:26.527Z,13.50
2019-01-11T11:16:26.703Z,13.10
2019-01-11T11:17:26.878Z,13.60
2019-01-11T11:18:28.075Z,13.60
2019-01-11T11:19:27.205Z,13.30
2019-01-11T11:20:27.362Z,13.40
2019-01-11T11:21:27.535Z,13.60
2019-01-11T11:22:27.701Z,13.40
2019-01-11T11:23:27.869Z,13.80
2019-01-11T11:24:28.041Z,13.90
2019-01-11T11:25:28.214Z,13.90
2019-01-11T11:26:28.394Z,14.50
2019-01-11T11:27:28.548Z,14.20
2019-01-11T11:28:28.721Z,13.40
2019-01-11T11:29:28.891Z,13.30
2019-01-11T11:30:29.057Z,13.80
2019-01-11T11:31:29.231Z,14.10
2019-01-11T11:32:29.400Z,13.80
2019-01-11T11:33:29.573Z,14.10
2019-01-11T11:34:29.722Z,13.90
2019-01-11T11:35:29.907Z,14.40
2019-01-11T11:36:30.073Z,13.60
2019-01-11T11:37:30.247Z,14.40
2019-01-11T11:38:30.413Z,14.60
2019-01-11T11:39:30.575Z,14.40
2019-01-11T11:40:30.752Z,14.60
2019-01-11T11:41:30.917Z,14.40
2019-01-11T11:42:31.090Z,15.40
2019-01-11T11:43:31.259Z,14.80
2019-01-11T11:44:31.429Z,15.90
2019-01-11T11:45:31.603Z,16.20
2019-01-11T11:46:31.771Z,15.60
2019-01-11T11:47:31.930Z,15.60
2019-01-11T11:48:32.103Z,16.00
2019-01-11T11:49:32.282Z,15.70
2019-01-11T11:50:32.479Z,15.70
2019-01-11T11:51:32.613Z,15.20
2019-01-11T11:52:32.788Z,16.20
2019-01-11T11:53:32.946Z,15.60
2019-01-11T11:54:33.130Z,17.20
2019-01-11T11:55:33.291Z,15.00
2019-01-11T11:56:33.457Z,16.40
2019-01-11T11:57:33.639Z,16.20
2019-01-11T11:58:33.797Z,16.00
2019-01-11T11:59:33.971Z,16.40
2019-01-11T12:00:34.140Z,15.20
2019-01-11T12:01:34.306Z,15.70
2019-01-11T12:02:34.473Z,15.90
2019-01-11T12:03:34.644Z,16.90
2019-01-11T12:04:34.807Z,23.20
2019-01-11T12:05:34.977Z,16.10
2019-01-11T12:06:35.143Z,16.10
2019-01-11T12:07:35.326Z,16.60
2019-01-11T12:08:35.475Z,15.90
2019-01-11T12:09:35.640Z,16.00
2019-01-11T12:10:35.813Z,16.20
2019-01-11T12:11:35.979Z,15.90
2019-01-11T12:12:36.154Z,16.10
2019-01-11T12:13:36.321Z,16.10
2019-01-11T12:14:36.486Z,16.10
2019-01-11T12:15:36.661Z,16.70
2019-01-11T12:16:36.834Z,16.80
2019-01-11T12:17:37.006Z,16.30
2019-01-11T12:18:37.166Z,15.70
2019-01-11T12:19:37.343Z,16.10
2019-01-11T12:20:37.524Z,17.10
2019-01-11T12:21:37.679Z,16.60
2019-01-11T12:22:37.838Z,16.50
2019-01-11T12:23:38.014Z,17.90
2019-01-11T12:24:38.182Z,16.10
2019-01-11T12:25:38.366Z,16.10
2019-01-11T12:26:38.529Z,16.30
2019-01-11T12:27:38.699Z,16.00
2019-01-11T12:28:38.853Z,15.40
2019-01-11T12:29:39.019Z,16.20
2019-01-11T12:30:39.181Z,16.30
2019-01-11T12:31:39.352Z,16.80
2019-01-11T12:32:39.507Z,16.90
2019-01-11T12:33:39.682Z,16.60
2019-01-11T12:34:39.875Z,18.40
2019-01-11T12:35:40.038Z,16.40
2019-01-11T12:36:40.215Z,16.30
2019-01-11T12:37:40.382Z,14.40
2019-01-11T12:38:40.550Z,14.70
2019-01-11T12:39:40.718Z,15.20
2019-01-11T12:40:40.881Z,14.50
2019-01-11T12:41:41.054Z,15.50
2019-01-11T12:43:41.380Z,14.80
2019-01-11T12:44:41.553Z,14.40
2019-01-11T12:45:41.727Z,15.20
2019-01-11T12:46:41.892Z,15.60
2019-01-11T12:47:42.059Z,14.60
2019-01-11T12:48:42.234Z,15.90
2019-01-11T12:49:42.395Z,15.70
2019-01-11T12:50:42.577Z,15.60
2019-01-11T12:51:42.743Z,15.60
2019-01-11T12:52:42.903Z,18.50
2019-01-11T12:53:43.069Z,16.10
2019-01-11T12:54:43.245Z,15.90
2019-01-11T12:55:43.415Z,15.70
2019-01-11T12:56:43.573Z,16.00
2019-01-11T12:57:43.741Z,15.60
2019-01-11T12:58:43.954Z,15.60
2019-01-11T12:59:44.114Z,15.70